Terminal Aerodrome Forecast
Issued by NWS

Home | Current Version | Previous Version | Text Only | Print | Product List | Glossary On
Versions: 1 2 3 4 5 6 7 8 9 10 11 12
000
FTUS45 KRIW 141139
TAFBPI
TAF
KBPI 141139Z 1412/1512 33011KT P6SM VCSH SCT030 BKN050
     FM141400 32015G25KT P6SM FEW080 SCT110
     FM150100 34008KT P6SM SKC=

USA.gov is the U.S. government's official web portal to all federal, state and local government web resources and services.